sensor_id;sensor_type;location;lat;lon;timestamp;P1;durP1;ratioP1;P2;durP2;ratioP2
3567;SDS011;1798;48.486;9.232;2023-12-20T00:01:54;15.47;;;9.47;;
3567;SDS011;1798;48.486;9.232;2023-12-20T00:04:21;10.23;;;5.87;;
3567;SDS011;1798;48.486;9.232;2023-12-20T00:06:47;13.10;;;6.03;;
3567;SDS011;1798;48.486;9.232;2023-12-20T00:09:14;5.47;;;3.17;;
3567;SDS011;1798;48.486;9.232;2023-12-20T00:11:41;6.13;;;3.97;;
3567;SDS011;1798;48.486;9.232;2023-12-20T00:14:08;11.07;;;6.90;;
3567;SDS011;1798;48.486;9.232;2023-12-20T00:16:36;5.80;;;3.47;;
3567;SDS011;1798;48.486;9.232;2023-12-20T00:19:02;6.03;;;2.97;;
3567;SDS011;1798;48.486;9.232;2023-12-20T00:21:29;12.43;;;8.10;;
3567;SDS011;1798;48.486;9.232;2023-12-20T00:23:55;12.93;;;7.10;;
3567;SDS011;1798;48.486;9.232;2023-12-20T00:26:22;8.37;;;5.00;;
3567;SDS011;1798;48.486;9.232;2023-12-20T00:28:48;6.80;;;3.47;;
3567;SDS011;1798;48.486;9.232;2023-12-20T00:31:15;11.80;;;6.67;;
3567;SDS011;1798;48.486;9.232;2023-12-20T00:33:43;5.80;;;3.47;;
3567;SDS011;1798;48.486;9.232;2023-12-20T00:36:11;6.70;;;3.70;;
3567;SDS011;1798;48.486;9.232;2023-12-20T00:38:37;4.90;;;3.13;;
3567;SDS011;1798;48.486;9.232;2023-12-20T00:41:04;6.40;;;3.87;;
3567;SDS011;1798;48.486;9.232;2023-12-20T00:43:31;9.80;;;6.10;;
3567;SDS011;1798;48.486;9.232;2023-12-20T00:45:57;7.90;;;4.67;;
3567;SDS011;1798;48.486;9.232;2023-12-20T00:48:25;16.70;;;9.07;;
3567;SDS011;1798;48.486;9.232;2023-12-20T00:50:53;13.33;;;8.03;;
3567;SDS011;1798;48.486;9.232;2023-12-20T00:53:20;7.03;;;3.93;;
3567;SDS011;1798;48.486;9.232;2023-12-20T00:55:46;11.73;;;6.90;;
3567;SDS011;1798;48.486;9.232;2023-12-20T00:58:13;14.53;;;7.93;;
3567;SDS011;1798;48.486;9.232;2023-12-20T01:00:40;7.67;;;4.80;;
3567;SDS011;1798;48.486;9.232;2023-12-20T01:03:07;11.63;;;7.73;;
3567;SDS011;1798;48.486;9.232;2023-12-20T01:05:33;5.37;;;3.67;;
3567;SDS011;1798;48.486;9.232;2023-12-20T01:08:01;10.43;;;5.80;;
3567;SDS011;1798;48.486;9.232;2023-12-20T01:10:29;13.10;;;6.87;;
3567;SDS011;1798;48.486;9.232;2023-12-20T01:12:55;13.37;;;7.23;;
3567;SDS011;1798;48.486;9.232;2023-12-20T01:15:22;11.70;;;6.90;;
3567;SDS011;1798;48.486;9.232;2023-12-20T01:17:48;11.17;;;6.47;;
3567;SDS011;1798;48.486;9.232;2023-12-20T01:20:16;10.30;;;6.30;;
3567;SDS011;1798;48.486;9.232;2023-12-20T01:22:44;8.50;;;4.80;;
3567;SDS011;1798;48.486;9.232;2023-12-20T01:25:12;9.70;;;4.80;;
3567;SDS011;1798;48.486;9.232;2023-12-20T01:27:39;11.37;;;7.07;;
3567;SDS011;1798;48.486;9.232;2023-12-20T01:30:06;10.47;;;7.10;;
3567;SDS011;1798;48.486;9.232;2023-12-20T01:32:34;6.10;;;4.00;;
3567;SDS011;1798;48.486;9.232;2023-12-20T01:35:00;9.20;;;5.80;;
3567;SDS011;1798;48.486;9.232;2023-12-20T01:37:27;10.40;;;5.87;;
3567;SDS011;1798;48.486;9.232;2023-12-20T01:39:54;7.53;;;3.60;;
3567;SDS011;1798;48.486;9.232;2023-12-20T01:42:22;10.50;;;5.43;;
3567;SDS011;1798;48.486;9.232;2023-12-20T01:44:48;11.13;;;6.67;;
3567;SDS011;1798;48.486;9.232;2023-12-20T01:47:15;12.03;;;7.13;;
3567;SDS011;1798;48.486;9.232;2023-12-20T01:49:43;6.80;;;3.60;;
3567;SDS011;1798;48.486;9.232;2023-12-20T01:52:10;12.17;;;6.30;;
3567;SDS011;1798;48.486;9.232;2023-12-20T01:54:37;11.17;;;6.80;;
3567;SDS011;1798;48.486;9.232;2023-12-20T01:57:05;6.60;;;3.80;;
3567;SDS011;1798;48.486;9.232;2023-12-20T01:59:34;13.63;;;7.47;;
3567;SDS011;1798;48.486;9.232;2023-12-20T02:02:00;6.03;;;3.70;;
3567;SDS011;1798;48.486;9.232;2023-12-20T02:04:29;10.17;;;5.20;;
3567;SDS011;1798;48.486;9.232;2023-12-20T02:06:55;10.77;;;5.93;;
3567;SDS011;1798;48.486;9.232;2023-12-20T02:09:22;11.50;;;7.20;;
3567;SDS011;1798;48.486;9.232;2023-12-20T02:11:49;8.60;;;5.40;;
3567;SDS011;1798;48.486;9.232;2023-12-20T02:14:15;8.37;;;4.83;;
3567;SDS011;1798;48.486;9.232;2023-12-20T02:16:43;9.77;;;3.40;;
3567;SDS011;1798;48.486;9.232;2023-12-20T02:19:12;6.70;;;4.00;;
3567;SDS011;1798;48.486;9.232;2023-12-20T02:21:41;5.80;;;3.73;;
3567;SDS011;1798;48.486;9.232;2023-12-20T02:24:07;9.47;;;3.20;;
3567;SDS011;1798;48.486;9.232;2023-12-20T02:26:34;5.33;;;3.10;;
3567;SDS011;1798;48.486;9.232;2023-12-20T02:29:01;7.70;;;2.70;;
3567;SDS011;1798;48.486;9.232;2023-12-20T02:31:27;4.80;;;3.17;;
3567;SDS011;1798;48.486;9.232;2023-12-20T02:33:54;11.07;;;6.37;;
3567;SDS011;1798;48.486;9.232;2023-12-20T02:36:20;4.93;;;3.03;;
3567;SDS011;1798;48.486;9.232;2023-12-20T02:38:48;12.53;;;5.90;;
3567;SDS011;1798;48.486;9.232;2023-12-20T02:41:15;12.73;;;6.80;;
3567;SDS011;1798;48.486;9.232;2023-12-20T02:43:43;12.93;;;5.80;;
3567;SDS011;1798;48.486;9.232;2023-12-20T02:46:09;9.40;;;5.97;;
3567;SDS011;1798;48.486;9.232;2023-12-20T02:48:36;6.63;;;3.60;;
3567;SDS011;1798;48.486;9.232;2023-12-20T02:51:02;10.73;;;6.33;;
3567;SDS011;1798;48.486;9.232;2023-12-20T02:53:29;7.27;;;5.30;;
3567;SDS011;1798;48.486;9.232;2023-12-20T02:55:57;10.93;;;6.23;;
3567;SDS011;1798;48.486;9.232;2023-12-20T02:58:24;11.17;;;5.23;;
3567;SDS011;1798;48.486;9.232;2023-12-20T03:00:50;5.60;;;3.37;;
3567;SDS011;1798;48.486;9.232;2023-12-20T03:03:17;10.50;;;6.40;;
3567;SDS011;1798;48.486;9.232;2023-12-20T03:05:44;5.07;;;3.20;;
3567;SDS011;1798;48.486;9.232;2023-12-20T03:08:11;7.13;;;3.40;;
3567;SDS011;1798;48.486;9.232;2023-12-20T03:10:37;5.90;;;4.00;;
3567;SDS011;1798;48.486;9.232;2023-12-20T03:13:05;4.60;;;3.00;;
3567;SDS011;1798;48.486;9.232;2023-12-20T03:15:32;5.13;;;2.93;;
3567;SDS011;1798;48.486;9.232;2023-12-20T03:17:58;6.53;;;3.10;;
3567;SDS011;1798;48.486;9.232;2023-12-20T03:20:25;4.77;;;2.97;;
3567;SDS011;1798;48.486;9.232;2023-12-20T03:22:52;7.57;;;4.70;;
3567;SDS011;1798;48.486;9.232;2023-12-20T03:25:18;6.87;;;4.87;;
3567;SDS011;1798;48.486;9.232;2023-12-20T03:27:45;6.90;;;3.90;;
3567;SDS011;1798;48.486;9.232;2023-12-20T03:30:13;5.93;;;3.87;;
3567;SDS011;1798;48.486;9.232;2023-12-20T03:32:40;11.00;;;5.53;;
3567;SDS011;1798;48.486;9.232;2023-12-20T03:35:06;8.30;;;4.40;;
3567;SDS011;1798;48.486;9.232;2023-12-20T03:37:33;9.20;;;5.53;;
3567;SDS011;1798;48.486;9.232;2023-12-20T03:40:00;9.87;;;5.73;;
3567;SDS011;1798;48.486;9.232;2023-12-20T03:42:26;4.73;;;3.00;;
3567;SDS011;1798;48.486;9.232;2023-12-20T03:44:53;6.87;;;4.00;;
3567;SDS011;1798;48.486;9.232;2023-12-20T03:47:21;8.60;;;6.03;;
3567;SDS011;1798;48.486;9.232;2023-12-20T03:49:47;8.13;;;5.60;;
3567;SDS011;1798;48.486;9.232;2023-12-20T03:52:14;8.70;;;5.53;;
3567;SDS011;1798;48.486;9.232;2023-12-20T03:54:40;8.10;;;5.43;;
3567;SDS011;1798;48.486;9.232;2023-12-20T03:57:08;10.97;;;5.93;;
3567;SDS011;1798;48.486;9.232;2023-12-20T03:59:34;9.77;;;6.83;;
3567;SDS011;1798;48.486;9.232;2023-12-20T04:02:02;11.23;;;6.20;;
3567;SDS011;1798;48.486;9.232;2023-12-20T04:04:31;9.13;;;6.00;;
3567;SDS011;1798;48.486;9.232;2023-12-20T04:06:57;6.47;;;3.90;;
3567;SDS011;1798;48.486;9.232;2023-12-20T04:09:24;11.57;;;6.77;;
3567;SDS011;1798;48.486;9.232;2023-12-20T04:11:50;6.90;;;4.40;;
3567;SDS011;1798;48.486;9.232;2023-12-20T04:14:17;11.20;;;5.93;;
3567;SDS011;1798;48.486;9.232;2023-12-20T04:16:43;8.70;;;5.57;;
3567;SDS011;1798;48.486;9.232;2023-12-20T04:19:10;8.10;;;4.90;;
3567;SDS011;1798;48.486;9.232;2023-12-20T04:21:38;9.70;;;5.57;;
3567;SDS011;1798;48.486;9.232;2023-12-20T04:24:05;8.63;;;5.87;;
3567;SDS011;1798;48.486;9.232;2023-12-20T04:26:32;8.23;;;5.57;;
3567;SDS011;1798;48.486;9.232;2023-12-20T04:28:58;4.70;;;2.77;;
3567;SDS011;1798;48.486;9.232;2023-12-20T04:31:25;8.23;;;5.00;;
3567;SDS011;1798;48.486;9.232;2023-12-20T04:33:51;12.87;;;6.27;;
3567;SDS011;1798;48.486;9.232;2023-12-20T04:36:18;5.00;;;2.50;;
3567;SDS011;1798;48.486;9.232;2023-12-20T04:38:46;8.77;;;5.20;;
3567;SDS011;1798;48.486;9.232;2023-12-20T04:41:12;6.53;;;4.23;;
3567;SDS011;1798;48.486;9.232;2023-12-20T04:43:40;7.00;;;4.77;;
3567;SDS011;1798;48.486;9.232;2023-12-20T04:46:07;10.80;;;4.93;;
3567;SDS011;1798;48.486;9.232;2023-12-20T04:48:33;9.70;;;6.10;;
3567;SDS011;1798;48.486;9.232;2023-12-20T04:51:00;11.50;;;6.00;;
3567;SDS011;1798;48.486;9.232;2023-12-20T04:53:26;8.00;;;5.03;;
3567;SDS011;1798;48.486;9.232;2023-12-20T04:55:54;8.93;;;5.80;;
3567;SDS011;1798;48.486;9.232;2023-12-20T04:58:21;5.10;;;2.63;;
3567;SDS011;1798;48.486;9.232;2023-12-20T05:00:47;10.40;;;4.83;;
3567;SDS011;1798;48.486;9.232;2023-12-20T05:03:14;5.60;;;3.23;;
3567;SDS011;1798;48.486;9.232;2023-12-20T05:05:40;9.53;;;6.27;;
3567;SDS011;1798;48.486;9.232;2023-12-20T05:08:07;7.90;;;5.20;;
3567;SDS011;1798;48.486;9.232;2023-12-20T05:10:33;10.60;;;5.00;;
3567;SDS011;1798;48.486;9.232;2023-12-20T05:13:03;5.67;;;3.47;;
3567;SDS011;1798;48.486;9.232;2023-12-20T05:15:29;6.27;;;3.77;;
3567;SDS011;1798;48.486;9.232;2023-12-20T05:17:56;4.03;;;2.63;;
3567;SDS011;1798;48.486;9.232;2023-12-20T05:20:22;6.80;;;4.53;;
3567;SDS011;1798;48.486;9.232;2023-12-20T05:22:49;5.00;;;2.90;;
3567;SDS011;1798;48.486;9.232;2023-12-20T05:25:16;8.90;;;4.87;;
3567;SDS011;1798;48.486;9.232;2023-12-20T05:27:42;9.23;;;4.60;;
3567;SDS011;1798;48.486;9.232;2023-12-20T05:30:11;9.67;;;5.90;;
3567;SDS011;1798;48.486;9.232;2023-12-20T05:32:38;13.00;;;5.43;;
3567;SDS011;1798;48.486;9.232;2023-12-20T05:35:05;7.93;;;5.20;;
3567;SDS011;1798;48.486;9.232;2023-12-20T05:37:32;5.43;;;2.93;;
3567;SDS011;1798;48.486;9.232;2023-12-20T05:39:58;8.83;;;5.60;;
3567;SDS011;1798;48.486;9.232;2023-12-20T05:42:25;6.37;;;4.03;;
3567;SDS011;1798;48.486;9.232;2023-12-20T05:44:53;4.80;;;3.27;;
3567;SDS011;1798;48.486;9.232;2023-12-20T05:47:21;6.07;;;3.30;;
3567;SDS011;1798;48.486;9.232;2023-12-20T05:49:48;5.63;;;3.10;;
3567;SDS011;1798;48.486;9.232;2023-12-20T05:52:15;8.97;;;3.87;;
3567;SDS011;1798;48.486;9.232;2023-12-20T05:54:42;8.97;;;2.27;;
3567;SDS011;1798;48.486;9.232;2023-12-20T05:57:08;4.57;;;2.40;;
3567;SDS011;1798;48.486;9.232;2023-12-20T05:59:35;4.47;;;2.27;;
3567;SDS011;1798;48.486;9.232;2023-12-20T06:02:03;4.13;;;2.10;;
3567;SDS011;1798;48.486;9.232;2023-12-20T06:04:31;4.17;;;2.43;;
3567;SDS011;1798;48.486;9.232;2023-12-20T06:06:58;4.17;;;2.57;;
3567;SDS011;1798;48.486;9.232;2023-12-20T06:09:26;4.07;;;2.47;;
3567;SDS011;1798;48.486;9.232;2023-12-20T06:11:53;4.93;;;2.43;;
3567;SDS011;1798;48.486;9.232;2023-12-20T06:14:19;3.93;;;2.13;;
3567;SDS011;1798;48.486;9.232;2023-12-20T06:16:46;4.30;;;2.33;;
3567;SDS011;1798;48.486;9.232;2023-12-20T06:19:13;3.87;;;2.10;;
3567;SDS011;1798;48.486;9.232;2023-12-20T06:21:41;6.10;;;2.40;;
3567;SDS011;1798;48.486;9.232;2023-12-20T06:24:07;5.03;;;2.40;;
3567;SDS011;1798;48.486;9.232;2023-12-20T06:26:34;4.23;;;2.23;;
3567;SDS011;1798;48.486;9.232;2023-12-20T06:29:01;5.63;;;2.40;;
3567;SDS011;1798;48.486;9.232;2023-12-20T06:31:28;4.00;;;2.03;;
3567;SDS011;1798;48.486;9.232;2023-12-20T06:33:55;4.50;;;2.43;;
3567;SDS011;1798;48.486;9.232;2023-12-20T06:36:24;4.73;;;2.40;;
3567;SDS011;1798;48.486;9.232;2023-12-20T06:38:52;4.50;;;2.47;;
3567;SDS011;1798;48.486;9.232;2023-12-20T06:41:19;4.10;;;2.40;;
3567;SDS011;1798;48.486;9.232;2023-12-20T06:43:46;4.70;;;2.60;;
3567;SDS011;1798;48.486;9.232;2023-12-20T06:46:12;4.17;;;2.17;;
3567;SDS011;1798;48.486;9.232;2023-12-20T06:48:39;4.20;;;2.10;;
3567;SDS011;1798;48.486;9.232;2023-12-20T06:51:06;4.93;;;2.20;;
3567;SDS011;1798;48.486;9.232;2023-12-20T06:53:32;4.40;;;2.43;;
3567;SDS011;1798;48.486;9.232;2023-12-20T06:56:00;4.10;;;2.10;;
3567;SDS011;1798;48.486;9.232;2023-12-20T06:58:27;5.53;;;2.47;;
3567;SDS011;1798;48.486;9.232;2023-12-20T07:00:54;3.90;;;2.10;;
3567;SDS011;1798;48.486;9.232;2023-12-20T07:03:20;4.20;;;2.20;;
3567;SDS011;1798;48.486;9.232;2023-12-20T07:07:25;4.57;;;2.53;;
3567;SDS011;1798;48.486;9.232;2023-12-20T07:09:52;4.20;;;2.43;;
3567;SDS011;1798;48.486;9.232;2023-12-20T07:12:19;3.90;;;2.27;;
3567;SDS011;1798;48.486;9.232;2023-12-20T07:14:46;4.10;;;2.30;;
3567;SDS011;1798;48.486;9.232;2023-12-20T07:17:12;4.50;;;2.33;;
3567;SDS011;1798;48.486;9.232;2023-12-20T07:19:40;4.77;;;2.53;;
3567;SDS011;1798;48.486;9.232;2023-12-20T07:22:07;5.60;;;2.30;;
3567;SDS011;1798;48.486;9.232;2023-12-20T07:24:35;4.10;;;2.30;;
3567;SDS011;1798;48.486;9.232;2023-12-20T07:27:02;4.33;;;2.37;;
3567;SDS011;1798;48.486;9.232;2023-12-20T07:29:29;5.47;;;2.87;;
3567;SDS011;1798;48.486;9.232;2023-12-20T07:31:55;4.50;;;2.70;;
3567;SDS011;1798;48.486;9.232;2023-12-20T07:34:22;4.30;;;2.70;;
3567;SDS011;1798;48.486;9.232;2023-12-20T07:36:48;4.43;;;2.70;;
3567;SDS011;1798;48.486;9.232;2023-12-20T07:39:15;4.83;;;2.93;;
3567;SDS011;1798;48.486;9.232;2023-12-20T07:41:43;4.00;;;2.40;;
3567;SDS011;1798;48.486;9.232;2023-12-20T07:44:09;5.00;;;2.50;;
3567;SDS011;1798;48.486;9.232;2023-12-20T07:46:36;4.13;;;2.23;;
3567;SDS011;1798;48.486;9.232;2023-12-20T07:49:03;4.00;;;2.30;;
3567;SDS011;1798;48.486;9.232;2023-12-20T07:51:31;5.77;;;2.50;;
3567;SDS011;1798;48.486;9.232;2023-12-20T07:53:58;4.70;;;2.60;;
3567;SDS011;1798;48.486;9.232;2023-12-20T07:56:24;6.53;;;2.40;;
3567;SDS011;1798;48.486;9.232;2023-12-20T07:58:52;4.07;;;2.43;;
3567;SDS011;1798;48.486;9.232;2023-12-20T08:01:19;4.17;;;2.53;;
3567;SDS011;1798;48.486;9.232;2023-12-20T08:03:45;5.20;;;2.43;;
3567;SDS011;1798;48.486;9.232;2023-12-20T08:06:12;4.60;;;2.60;;
3567;SDS011;1798;48.486;9.232;2023-12-20T08:08:39;5.17;;;3.07;;
3567;SDS011;1798;48.486;9.232;2023-12-20T08:11:05;4.20;;;2.37;;
3567;SDS011;1798;48.486;9.232;2023-12-20T08:13:32;4.40;;;2.70;;
3567;SDS011;1798;48.486;9.232;2023-12-20T08:16:00;4.50;;;2.47;;
3567;SDS011;1798;48.486;9.232;2023-12-20T08:18:28;4.77;;;2.63;;
3567;SDS011;1798;48.486;9.232;2023-12-20T08:20:54;4.37;;;2.83;;
3567;SDS011;1798;48.486;9.232;2023-12-20T08:23:21;4.30;;;2.40;;
3567;SDS011;1798;48.486;9.232;2023-12-20T08:25:48;4.90;;;2.17;;
3567;SDS011;1798;48.486;9.232;2023-12-20T08:28:15;5.27;;;3.00;;
3567;SDS011;1798;48.486;9.232;2023-12-20T08:30:41;4.20;;;2.33;;
3567;SDS011;1798;48.486;9.232;2023-12-20T08:33:10;4.40;;;2.10;;
3567;SDS011;1798;48.486;9.232;2023-12-20T08:35:38;4.30;;;2.60;;
3567;SDS011;1798;48.486;9.232;2023-12-20T08:38:04;4.50;;;2.70;;
3567;SDS011;1798;48.486;9.232;2023-12-20T08:40:31;5.00;;;3.10;;
3567;SDS011;1798;48.486;9.232;2023-12-20T08:42:58;4.83;;;2.80;;
3567;SDS011;1798;48.486;9.232;2023-12-20T08:45:24;5.40;;;2.50;;
3567;SDS011;1798;48.486;9.232;2023-12-20T08:47:51;4.33;;;2.17;;
3567;SDS011;1798;48.486;9.232;2023-12-20T08:50:19;7.23;;;2.80;;
3567;SDS011;1798;48.486;9.232;2023-12-20T08:52:45;5.80;;;2.60;;
3567;SDS011;1798;48.486;9.232;2023-12-20T08:55:12;5.37;;;3.03;;
3567;SDS011;1798;48.486;9.232;2023-12-20T08:57:40;4.27;;;2.50;;
3567;SDS011;1798;48.486;9.232;2023-12-20T09:00:07;5.03;;;2.63;;
3567;SDS011;1798;48.486;9.232;2023-12-20T09:02:35;5.30;;;2.50;;
3567;SDS011;1798;48.486;9.232;2023-12-20T09:05:02;6.13;;;2.90;;
3567;SDS011;1798;48.486;9.232;2023-12-20T09:07:31;4.80;;;2.80;;
3567;SDS011;1798;48.486;9.232;2023-12-20T09:09:58;7.47;;;3.30;;
3567;SDS011;1798;48.486;9.232;2023-12-20T09:12:24;5.40;;;2.73;;
3567;SDS011;1798;48.486;9.232;2023-12-20T09:14:52;6.20;;;2.80;;
3567;SDS011;1798;48.486;9.232;2023-12-20T09:17:19;4.87;;;2.30;;
3567;SDS011;1798;48.486;9.232;2023-12-20T09:19:45;5.30;;;3.00;;
3567;SDS011;1798;48.486;9.232;2023-12-20T09:22:12;4.23;;;2.40;;
3567;SDS011;1798;48.486;9.232;2023-12-20T09:24:40;4.40;;;2.60;;
3567;SDS011;1798;48.486;9.232;2023-12-20T09:27:07;4.17;;;2.43;;
3567;SDS011;1798;48.486;9.232;2023-12-20T09:29:33;4.43;;;2.57;;
3567;SDS011;1798;48.486;9.232;2023-12-20T09:32:00;4.60;;;2.90;;
3567;SDS011;1798;48.486;9.232;2023-12-20T09:34:26;10.30;;;2.70;;
3567;SDS011;1798;48.486;9.232;2023-12-20T09:36:53;5.37;;;3.50;;
3567;SDS011;1798;48.486;9.232;2023-12-20T09:39:20;5.23;;;3.33;;
3567;SDS011;1798;48.486;9.232;2023-12-20T09:41:49;5.80;;;3.13;;
3567;SDS011;1798;48.486;9.232;2023-12-20T09:44:21;5.67;;;3.60;;
3567;SDS011;1798;48.486;9.232;2023-12-20T09:46:49;6.50;;;3.30;;
3567;SDS011;1798;48.486;9.232;2023-12-20T09:49:16;4.63;;;2.50;;
3567;SDS011;1798;48.486;9.232;2023-12-20T09:51:43;5.30;;;2.40;;
3567;SDS011;1798;48.486;9.232;2023-12-20T09:54:10;4.60;;;2.70;;
3567;SDS011;1798;48.486;9.232;2023-12-20T09:56:37;8.23;;;3.13;;
3567;SDS011;1798;48.486;9.232;2023-12-20T09:59:05;9.90;;;3.93;;
3567;SDS011;1798;48.486;9.232;2023-12-20T10:04:54;4.80;;;2.80;;
3567;SDS011;1798;48.486;9.232;2023-12-20T10:07:20;7.80;;;3.50;;
3567;SDS011;1798;48.486;9.232;2023-12-20T10:09:47;5.60;;;2.77;;
3567;SDS011;1798;48.486;9.232;2023-12-20T10:12:14;11.40;;;3.73;;
3567;SDS011;1798;48.486;9.232;2023-12-20T10:14:42;5.83;;;3.17;;
3567;SDS011;1798;48.486;9.232;2023-12-20T10:17:10;7.40;;;3.53;;
3567;SDS011;1798;48.486;9.232;2023-12-20T10:19:36;8.70;;;3.20;;
3567;SDS011;1798;48.486;9.232;2023-12-20T10:22:04;6.20;;;3.20;;
3567;SDS011;1798;48.486;9.232;2023-12-20T10:24:31;8.53;;;3.90;;
3567;SDS011;1798;48.486;9.232;2023-12-20T10:27:01;11.03;;;3.70;;
3567;SDS011;1798;48.486;9.232;2023-12-20T10:29:31;5.70;;;3.00;;
3567;SDS011;1798;48.486;9.232;2023-12-20T10:31:59;5.60;;;3.40;;
3567;SDS011;1798;48.486;9.232;2023-12-20T10:34:26;9.53;;;3.20;;
3567;SDS011;1798;48.486;9.232;2023-12-20T10:36:52;12.20;;;4.67;;
3567;SDS011;1798;48.486;9.232;2023-12-20T10:39:19;6.40;;;3.57;;
3567;SDS011;1798;48.486;9.232;2023-12-20T10:41:46;4.80;;;2.97;;
3567;SDS011;1798;48.486;9.232;2023-12-20T10:44:13;19.50;;;4.90;;
3567;SDS011;1798;48.486;9.232;2023-12-20T10:46:41;4.60;;;2.90;;
3567;SDS011;1798;48.486;9.232;2023-12-20T10:49:16;7.50;;;3.63;;
3567;SDS011;1798;48.486;9.232;2023-12-20T10:51:44;15.70;;;3.50;;
3567;SDS011;1798;48.486;9.232;2023-12-20T10:54:12;13.73;;;4.20;;
3567;SDS011;1798;48.486;9.232;2023-12-20T10:56:38;4.97;;;2.87;;
3567;SDS011;1798;48.486;9.232;2023-12-20T10:59:06;8.20;;;2.90;;
3567;SDS011;1798;48.486;9.232;2023-12-20T11:01:35;4.90;;;3.10;;
3567;SDS011;1798;48.486;9.232;2023-12-20T11:04:02;9.83;;;3.10;;
3567;SDS011;1798;48.486;9.232;2023-12-20T11:06:36;7.50;;;3.43;;
3567;SDS011;1798;48.486;9.232;2023-12-20T11:09:10;12.90;;;4.40;;
3567;SDS011;1798;48.486;9.232;2023-12-20T11:11:47;5.67;;;2.87;;
3567;SDS011;1798;48.486;9.232;2023-12-20T11:14:23;6.63;;;3.30;;
3567;SDS011;1798;48.486;9.232;2023-12-20T11:17:04;8.90;;;3.70;;
3567;SDS011;1798;48.486;9.232;2023-12-20T11:19:32;8.73;;;3.90;;
3567;SDS011;1798;48.486;9.232;2023-12-20T11:22:00;4.70;;;2.73;;
3567;SDS011;1798;48.486;9.232;2023-12-20T11:24:26;5.10;;;3.07;;
3567;SDS011;1798;48.486;9.232;2023-12-20T11:26:55;5.90;;;3.60;;
3567;SDS011;1798;48.486;9.232;2023-12-20T11:29:32;5.00;;;2.80;;
3567;SDS011;1798;48.486;9.232;2023-12-20T11:32:00;6.07;;;3.17;;
3567;SDS011;1798;48.486;9.232;2023-12-20T11:34:28;5.13;;;2.90;;
3567;SDS011;1798;48.486;9.232;2023-12-20T11:37:00;7.90;;;3.47;;
3567;SDS011;1798;48.486;9.232;2023-12-20T11:39:29;10.20;;;3.40;;
3567;SDS011;1798;48.486;9.232;2023-12-20T11:41:57;6.90;;;3.03;;
3567;SDS011;1798;48.486;9.232;2023-12-20T11:44:25;5.00;;;3.10;;
3567;SDS011;1798;48.486;9.232;2023-12-20T11:46:52;4.60;;;2.93;;
3567;SDS011;1798;48.486;9.232;2023-12-20T11:49:22;7.77;;;3.30;;
3567;SDS011;1798;48.486;9.232;2023-12-20T11:51:50;6.40;;;3.00;;
3567;SDS011;1798;48.486;9.232;2023-12-20T11:54:18;4.70;;;2.60;;
3567;SDS011;1798;48.486;9.232;2023-12-20T11:56:45;5.70;;;3.40;;
3567;SDS011;1798;48.486;9.232;2023-12-20T11:59:12;5.27;;;2.63;;
3567;SDS011;1798;48.486;9.232;2023-12-20T12:01:38;8.63;;;3.00;;
3567;SDS011;1798;48.486;9.232;2023-12-20T12:04:05;5.77;;;2.80;;
3567;SDS011;1798;48.486;9.232;2023-12-20T12:06:32;6.47;;;3.70;;
3567;SDS011;1798;48.486;9.232;2023-12-20T12:08:59;4.40;;;2.70;;
3567;SDS011;1798;48.486;9.232;2023-12-20T12:11:27;11.40;;;3.80;;
3567;SDS011;1798;48.486;9.232;2023-12-20T12:13:53;5.80;;;2.53;;
3567;SDS011;1798;48.486;9.232;2023-12-20T12:16:20;5.63;;;3.20;;
3567;SDS011;1798;48.486;9.232;2023-12-20T12:18:54;6.30;;;3.30;;
3567;SDS011;1798;48.486;9.232;2023-12-20T12:21:21;7.20;;;3.60;;
3567;SDS011;1798;48.486;9.232;2023-12-20T12:23:48;8.60;;;3.13;;
3567;SDS011;1798;48.486;9.232;2023-12-20T12:26:14;10.03;;;3.50;;
3567;SDS011;1798;48.486;9.232;2023-12-20T12:28:42;6.77;;;3.30;;
3567;SDS011;1798;48.486;9.232;2023-12-20T12:31:12;5.77;;;3.50;;
3567;SDS011;1798;48.486;9.232;2023-12-20T12:33:40;8.40;;;3.87;;
3567;SDS011;1798;48.486;9.232;2023-12-20T12:36:07;31.10;;;3.83;;
3567;SDS011;1798;48.486;9.232;2023-12-20T12:38:34;8.43;;;3.40;;
3567;SDS011;1798;48.486;9.232;2023-12-20T12:41:01;5.60;;;3.30;;
3567;SDS011;1798;48.486;9.232;2023-12-20T12:43:28;8.07;;;3.50;;
3567;SDS011;1798;48.486;9.232;2023-12-20T12:45:56;16.57;;;3.30;;
3567;SDS011;1798;48.486;9.232;2023-12-20T12:48:22;6.10;;;3.17;;
3567;SDS011;1798;48.486;9.232;2023-12-20T12:50:49;13.40;;;4.30;;
3567;SDS011;1798;48.486;9.232;2023-12-20T12:53:18;10.43;;;3.70;;
3567;SDS011;1798;48.486;9.232;2023-12-20T12:55:44;8.77;;;4.60;;
3567;SDS011;1798;48.486;9.232;2023-12-20T12:58:11;6.03;;;3.00;;
3567;SDS011;1798;48.486;9.232;2023-12-20T13:00:37;10.63;;;4.57;;
3567;SDS011;1798;48.486;9.232;2023-12-20T13:03:05;9.70;;;3.63;;
3567;SDS011;1798;48.486;9.232;2023-12-20T13:05:32;15.13;;;4.00;;
3567;SDS011;1798;48.486;9.232;2023-12-20T13:07:59;16.40;;;4.37;;
3567;SDS011;1798;48.486;9.232;2023-12-20T13:10:25;11.87;;;5.17;;
3567;SDS011;1798;48.486;9.232;2023-12-20T13:12:52;9.13;;;3.40;;
3567;SDS011;1798;48.486;9.232;2023-12-20T13:15:18;8.03;;;3.40;;
3567;SDS011;1798;48.486;9.232;2023-12-20T13:17:45;5.80;;;3.13;;
3567;SDS011;1798;48.486;9.232;2023-12-20T13:20:13;9.60;;;3.33;;
3567;SDS011;1798;48.486;9.232;2023-12-20T13:22:40;10.47;;;3.50;;
3567;SDS011;1798;48.486;9.232;2023-12-20T13:25:07;11.37;;;3.70;;
3567;SDS011;1798;48.486;9.232;2023-12-20T13:27:34;20.63;;;4.03;;
3567;SDS011;1798;48.486;9.232;2023-12-20T13:30:00;15.90;;;4.40;;
3567;SDS011;1798;48.486;9.232;2023-12-20T13:32:28;9.10;;;3.70;;
3567;SDS011;1798;48.486;9.232;2023-12-20T13:34:54;14.70;;;4.10;;
3567;SDS011;1798;48.486;9.232;2023-12-20T13:37:24;10.43;;;3.47;;
3567;SDS011;1798;48.486;9.232;2023-12-20T13:39:50;7.80;;;3.37;;
3567;SDS011;1798;48.486;9.232;2023-12-20T13:42:17;13.50;;;3.60;;
3567;SDS011;1798;48.486;9.232;2023-12-20T13:44:45;37.67;;;4.93;;
3567;SDS011;1798;48.486;9.232;2023-12-20T13:47:12;7.80;;;3.97;;
3567;SDS011;1798;48.486;9.232;2023-12-20T13:49:39;8.07;;;3.73;;
3567;SDS011;1798;48.486;9.232;2023-12-20T13:52:06;18.87;;;4.10;;
3567;SDS011;1798;48.486;9.232;2023-12-20T13:54:34;12.90;;;4.33;;
3567;SDS011;1798;48.486;9.232;2023-12-20T13:57:01;11.93;;;3.50;;
3567;SDS011;1798;48.486;9.232;2023-12-20T13:59:28;15.43;;;4.47;;
3567;SDS011;1798;48.486;9.232;2023-12-20T14:01:55;13.33;;;4.60;;
3567;SDS011;1798;48.486;9.232;2023-12-20T14:04:22;8.40;;;3.87;;
3567;SDS011;1798;48.486;9.232;2023-12-20T14:06:48;12.53;;;3.63;;
3567;SDS011;1798;48.486;9.232;2023-12-20T14:09:15;14.90;;;4.30;;
3567;SDS011;1798;48.486;9.232;2023-12-20T14:11:43;19.17;;;4.23;;
3567;SDS011;1798;48.486;9.232;2023-12-20T14:14:11;13.00;;;4.90;;
3567;SDS011;1798;48.486;9.232;2023-12-20T14:16:37;34.77;;;5.33;;
3567;SDS011;1798;48.486;9.232;2023-12-20T14:19:04;15.40;;;4.07;;
3567;SDS011;1798;48.486;9.232;2023-12-20T14:21:32;12.70;;;5.10;;
3567;SDS011;1798;48.486;9.232;2023-12-20T14:23:59;16.13;;;4.50;;
3567;SDS011;1798;48.486;9.232;2023-12-20T14:26:25;9.83;;;4.63;;
3567;SDS011;1798;48.486;9.232;2023-12-20T14:28:54;7.83;;;3.87;;
3567;SDS011;1798;48.486;9.232;2023-12-20T14:31:21;8.20;;;3.80;;
3567;SDS011;1798;48.486;9.232;2023-12-20T14:33:49;10.53;;;3.67;;
3567;SDS011;1798;48.486;9.232;2023-12-20T14:36:18;11.90;;;3.60;;
3567;SDS011;1798;48.486;9.232;2023-12-20T14:38:45;22.33;;;3.50;;
3567;SDS011;1798;48.486;9.232;2023-12-20T14:41:14;26.83;;;4.00;;
3567;SDS011;1798;48.486;9.232;2023-12-20T14:43:42;9.80;;;3.27;;
3567;SDS011;1798;48.486;9.232;2023-12-20T14:46:10;10.13;;;4.17;;
3567;SDS011;1798;48.486;9.232;2023-12-20T14:48:37;11.47;;;4.33;;
3567;SDS011;1798;48.486;9.232;2023-12-20T14:51:04;8.13;;;4.00;;
3567;SDS011;1798;48.486;9.232;2023-12-20T14:53:30;16.23;;;3.80;;
3567;SDS011;1798;48.486;9.232;2023-12-20T14:55:57;17.03;;;3.90;;
3567;SDS011;1798;48.486;9.232;2023-12-20T14:58:23;11.80;;;4.30;;
3567;SDS011;1798;48.486;9.232;2023-12-20T15:00:50;11.90;;;3.40;;
3567;SDS011;1798;48.486;9.232;2023-12-20T15:03:18;12.50;;;4.03;;
3567;SDS011;1798;48.486;9.232;2023-12-20T15:05:45;17.20;;;4.67;;
3567;SDS011;1798;48.486;9.232;2023-12-20T15:08:12;14.87;;;4.80;;
3567;SDS011;1798;48.486;9.232;2023-12-20T15:10:39;18.13;;;3.70;;
3567;SDS011;1798;48.486;9.232;2023-12-20T15:13:06;23.90;;;4.77;;
3567;SDS011;1798;48.486;9.232;2023-12-20T15:15:33;10.93;;;3.50;;
3567;SDS011;1798;48.486;9.232;2023-12-20T15:18:00;13.70;;;4.10;;